createdAt,value
2022-08-06T00:01:56.982Z,20.30
2022-08-06T00:06:01.773Z,20.20
2022-08-06T00:10:07.043Z,20.20
2022-08-06T00:14:13.710Z,20.10
2022-08-06T00:18:18.290Z,20.10
2022-08-06T00:22:27.696Z,19.90
2022-08-06T00:26:32.327Z,19.90
2022-08-06T00:30:35.618Z,19.80
2022-08-06T00:34:38.766Z,19.70
2022-08-06T00:38:44.689Z,19.50
2022-08-06T00:42:47.935Z,19.30
2022-08-06T00:46:53.415Z,19.20
2022-08-06T00:50:56.575Z,19.00
2022-08-06T00:55:01.220Z,18.80
2022-08-06T00:59:05.489Z,18.60
2022-08-06T01:03:27.779Z,18.20
2022-08-06T01:07:51.195Z,18.00
2022-08-06T01:11:59.876Z,17.90
2022-08-06T01:16:30.173Z,17.90
2022-08-06T01:22:01.184Z,17.90
2022-08-06T01:25:47.657Z,17.70
2022-08-06T01:29:57.470Z,17.60
2022-08-06T01:34:05.699Z,17.60
2022-08-06T01:38:17.840Z,17.50
2022-08-06T01:42:35.755Z,17.40
2022-08-06T01:46:46.068Z,17.30
2022-08-06T01:50:52.779Z,17.20
2022-08-06T01:54:59.498Z,17.10
2022-08-06T01:59:09.284Z,17.00
2022-08-06T02:03:22.176Z,17.00
2022-08-06T02:08:36.844Z,16.90
2022-08-06T02:12:03.454Z,16.70
2022-08-06T02:16:12.009Z,16.60
2022-08-06T02:20:36.891Z,16.50
2022-08-06T02:24:41.813Z,16.40
2022-08-06T02:28:50.392Z,16.40
2022-08-06T02:32:53.833Z,16.40
2022-08-06T02:37:05.806Z,16.40
2022-08-06T02:41:18.176Z,16.30
2022-08-06T02:45:27.638Z,16.30
2022-08-06T02:49:42.488Z,16.30
2022-08-06T02:54:04.357Z,16.30
2022-08-06T02:58:15.421Z,16.30
2022-08-06T03:02:24.018Z,16.40
2022-08-06T03:06:32.991Z,16.30
2022-08-06T03:10:38.602Z,16.30
2022-08-06T03:15:07.675Z,16.30
2022-08-06T03:19:58.247Z,16.30
2022-08-06T03:23:33.344Z,16.30
2022-08-06T03:27:43.010Z,16.20
2022-08-06T03:31:58.434Z,16.20
2022-08-06T03:36:04.110Z,16.20
2022-08-06T03:40:10.094Z,16.20
2022-08-06T03:44:16.717Z,16.20
2022-08-06T03:48:36.358Z,16.20
2022-08-06T03:52:45.130Z,16.20
2022-08-06T03:56:55.013Z,16.20
2022-08-06T04:01:06.719Z,16.20
2022-08-06T04:05:13.282Z,16.20
2022-08-06T04:09:17.528Z,16.30
2022-08-06T04:14:06.300Z,16.30
2022-08-06T04:18:04.044Z,16.20
2022-08-06T04:22:58.260Z,16.20
2022-08-06T04:26:32.643Z,16.20
2022-08-06T04:30:38.873Z,16.30
2022-08-06T04:36:05.787Z,16.30
2022-08-06T04:39:20.678Z,16.30
2022-08-06T04:43:38.809Z,16.40
2022-08-06T04:47:52.443Z,16.40
2022-08-06T04:52:36.331Z,16.40
2022-08-06T04:56:20.219Z,16.50
2022-08-06T05:00:33.554Z,16.50
2022-08-06T05:04:38.257Z,16.60
2022-08-06T05:08:52.069Z,16.60
2022-08-06T05:12:58.348Z,16.70
2022-08-06T05:17:04.142Z,16.70
2022-08-06T05:21:14.875Z,16.70
2022-08-06T05:25:27.363Z,16.80
2022-08-06T05:29:32.066Z,16.80
2022-08-06T05:33:41.872Z,16.80
2022-08-06T05:38:01.356Z,16.90
2022-08-06T05:42:09.394Z,16.90
2022-08-06T05:46:17.373Z,16.90
2022-08-06T05:50:25.467Z,17.00
2022-08-06T05:54:36.195Z,17.10
2022-08-06T05:58:51.378Z,17.30
2022-08-06T06:03:01.849Z,17.40
2022-08-06T06:07:08.721Z,17.40
2022-08-06T06:11:13.559Z,17.40
2022-08-06T06:16:00.871Z,17.60
2022-08-06T06:19:52.106Z,17.70
2022-08-06T06:24:02.772Z,17.80
2022-08-06T06:28:28.464Z,17.70
2022-08-06T06:32:45.019Z,17.80
2022-08-06T06:36:58.278Z,17.70
2022-08-06T06:41:20.039Z,17.60
2022-08-06T06:46:07.227Z,17.50
2022-08-06T06:50:04.011Z,17.50
2022-08-06T06:54:22.644Z,17.70
2022-08-06T06:58:33.490Z,17.90
2022-08-06T07:02:41.992Z,17.90
2022-08-06T07:06:57.757Z,18.10
2022-08-06T07:11:03.898Z,18.00
2022-08-06T07:15:15.000Z,17.90
2022-08-06T07:19:22.885Z,17.80
2022-08-06T07:24:07.450Z,17.70
2022-08-06T07:27:55.597Z,17.50
2022-08-06T07:32:00.775Z,17.80
2022-08-06T07:36:04.504Z,18.20
2022-08-06T07:40:17.778Z,18.30
2022-08-06T07:44:26.810Z,18.30
2022-08-06T07:48:35.182Z,18.30
2022-08-06T07:52:42.643Z,18.20
2022-08-06T07:56:59.751Z,18.30
2022-08-06T08:01:04.245Z,18.40
2022-08-06T08:05:39.469Z,18.60
2022-08-06T08:10:01.482Z,19.20
2022-08-06T08:14:09.352Z,19.40
2022-08-06T08:18:16.342Z,19.50
2022-08-06T08:22:24.243Z,19.60
2022-08-06T08:26:43.452Z,19.50
2022-08-06T08:30:52.924Z,19.50
2022-08-06T08:34:57.308Z,19.50
2022-08-06T08:39:06.119Z,19.90
2022-08-06T08:43:15.283Z,20.00
2022-08-06T08:47:38.820Z,19.90
2022-08-06T08:51:49.700Z,20.10
2022-08-06T08:57:09.507Z,20.40
2022-08-06T09:00:26.367Z,20.60
2022-08-06T09:04:34.085Z,20.60
2022-08-06T09:09:02.673Z,20.90
2022-08-06T09:13:01.742Z,20.90
2022-08-06T09:17:12.494Z,21.60
2022-08-06T09:21:31.057Z,22.10
2022-08-06T09:25:49.765Z,22.30
2022-08-06T09:30:04.429Z,22.50
2022-08-06T09:34:31.024Z,23.50
2022-08-06T09:38:49.468Z,23.90
2022-08-06T09:42:54.138Z,23.90
2022-08-06T09:46:58.938Z,23.80
2022-08-06T09:51:02.932Z,24.10
2022-08-06T09:55:16.970Z,23.80
2022-08-06T09:59:20.676Z,23.60
2022-08-06T10:04:01.867Z,23.30
2022-08-06T10:07:52.187Z,23.60
2022-08-06T10:11:58.864Z,23.40
2022-08-06T10:16:16.406Z,23.30
2022-08-06T10:20:20.304Z,23.20
2022-08-06T10:24:26.104Z,23.60
2022-08-06T10:28:49.037Z,24.10
2022-08-06T10:32:58.898Z,24.30
2022-08-06T10:37:07.806Z,23.90
2022-08-06T10:41:59.621Z,23.30
2022-08-06T10:45:49.929Z,23.60
2022-08-06T10:50:32.102Z,24.40
2022-08-06T10:54:22.487Z,24.30
2022-08-06T10:58:28.315Z,24.10
2022-08-06T11:02:40.231Z,24.90
2022-08-06T11:08:09.136Z,25.70
2022-08-06T11:12:17.348Z,26.00
2022-08-06T11:16:31.393Z,25.60
2022-08-06T11:20:45.079Z,25.50
2022-08-06T11:24:57.461Z,25.80
2022-08-06T11:29:02.586Z,25.70
2022-08-06T11:33:06.168Z,25.30
2022-08-06T11:38:00.572Z,25.30
2022-08-06T11:41:56.549Z,26.30
2022-08-06T11:46:35.450Z,27.20
2022-08-06T11:50:41.267Z,27.40
2022-08-06T11:55:03.490Z,26.50
2022-08-06T11:59:17.079Z,26.90
2022-08-06T12:03:44.511Z,27.00
2022-08-06T12:08:22.010Z,27.60
2022-08-06T12:12:45.032Z,28.60
2022-08-06T12:16:53.137Z,28.10
2022-08-06T12:20:58.140Z,27.20
2022-08-06T12:25:10.885Z,27.40
2022-08-06T12:29:17.275Z,27.60
2022-08-06T12:33:27.054Z,27.90
2022-08-06T12:37:47.542Z,27.80
2022-08-06T12:41:54.285Z,26.90
2022-08-06T12:46:06.891Z,26.70
2022-08-06T12:50:29.870Z,26.80
2022-08-06T12:54:33.608Z,26.90
2022-08-06T12:58:42.616Z,27.00
2022-08-06T13:02:50.459Z,26.70
2022-08-06T13:06:54.080Z,26.40
2022-08-06T13:11:00.313Z,26.30
2022-08-06T13:15:18.385Z,26.10
2022-08-06T13:19:28.091Z,26.10
2022-08-06T13:23:36.947Z,26.40
2022-08-06T13:27:56.175Z,26.70
2022-08-06T13:32:11.056Z,26.90
2022-08-06T13:36:33.327Z,27.60
2022-08-06T13:40:47.365Z,27.70
2022-08-06T13:44:55.288Z,27.90
2022-08-06T13:49:01.938Z,29.00
2022-08-06T13:53:07.600Z,29.70
2022-08-06T13:57:17.290Z,29.60
2022-08-06T14:01:20.435Z,29.90
2022-08-06T14:05:24.234Z,30.00
2022-08-06T14:09:41.142Z,30.20
2022-08-06T14:13:55.035Z,30.20
2022-08-06T14:17:58.353Z,29.70
2022-08-06T14:22:01.607Z,29.30
2022-08-06T14:26:12.596Z,29.00
2022-08-06T14:30:25.446Z,29.20
2022-08-06T14:34:35.824Z,29.70
2022-08-06T14:38:42.514Z,30.30
2022-08-06T14:43:04.544Z,30.80
2022-08-06T14:47:10.390Z,31.60
2022-08-06T14:51:23.544Z,31.80
2022-08-06T14:55:26.775Z,31.80
2022-08-06T14:59:48.261Z,31.60
2022-08-06T15:03:52.626Z,30.80
2022-08-06T15:07:57.358Z,30.70
2022-08-06T15:12:01.228Z,31.10
2022-08-06T15:16:11.027Z,30.90
2022-08-06T15:20:33.436Z,30.30
2022-08-06T15:24:38.640Z,30.70
2022-08-06T15:28:46.409Z,30.70
2022-08-06T15:32:57.171Z,30.90
2022-08-06T15:37:03.267Z,30.80
2022-08-06T15:41:07.805Z,30.40
2022-08-06T15:45:16.975Z,29.90
2022-08-06T15:50:03.982Z,30.00
2022-08-06T15:54:01.914Z,30.20
2022-08-06T15:58:10.361Z,29.90
2022-08-06T16:02:13.769Z,29.60
2022-08-06T16:06:36.327Z,29.70
2022-08-06T16:10:43.954Z,30.10
2022-08-06T16:14:57.443Z,30.40
2022-08-06T16:19:02.428Z,30.20
2022-08-06T16:23:38.205Z,29.90
2022-08-06T16:27:37.986Z,29.60
2022-08-06T16:31:48.503Z,29.40
2022-08-06T16:35:56.853Z,29.60
2022-08-06T16:40:04.879Z,29.80
2022-08-06T16:44:08.815Z,30.40
2022-08-06T16:48:25.094Z,30.90
2022-08-06T16:52:42.530Z,31.40
2022-08-06T16:56:49.740Z,31.70
2022-08-06T17:00:59.642Z,31.90
2022-08-06T17:05:21.540Z,31.80
2022-08-06T17:09:25.408Z,31.60
2022-08-06T17:17:53.770Z,32.50
2022-08-06T17:22:00.673Z,32.60
2022-08-06T17:26:04.834Z,32.60
2022-08-06T17:30:16.049Z,31.70
2022-08-06T17:34:19.601Z,30.60
2022-08-06T17:38:22.878Z,30.10
2022-08-06T17:42:26.876Z,30.50
2022-08-06T17:46:36.616Z,30.60
2022-08-06T17:50:42.642Z,30.10
2022-08-06T17:54:54.413Z,29.50
2022-08-06T17:59:17.687Z,28.40
2022-08-06T18:03:50.304Z,27.40
2022-08-06T18:08:10.804Z,26.50
2022-08-06T18:12:13.275Z,25.80
2022-08-06T18:16:16.422Z,25.40
2022-08-06T18:20:28.585Z,25.00
2022-08-06T18:24:43.375Z,24.60
2022-08-06T18:28:53.638Z,24.30
2022-08-06T18:32:56.977Z,24.00
2022-08-06T18:37:20.026Z,23.80
2022-08-06T18:41:24.801Z,23.50
2022-08-06T18:45:31.285Z,23.30
2022-08-06T18:49:51.354Z,23.10
2022-08-06T18:54:02.111Z,23.00
2022-08-06T18:58:13.831Z,22.80
2022-08-06T19:02:23.164Z,22.60
2022-08-06T19:06:30.184Z,22.40
2022-08-06T19:10:34.949Z,22.30
2022-08-06T19:14:44.359Z,22.10
2022-08-06T19:18:57.563Z,22.00
2022-08-06T19:23:03.005Z,21.80
2022-08-06T19:27:12.554Z,21.70
2022-08-06T19:31:23.290Z,21.60
2022-08-06T19:36:06.786Z,21.40
2022-08-06T19:40:12.404Z,21.30
2022-08-06T19:44:36.016Z,21.10
2022-08-06T19:48:45.557Z,21.00
2022-08-06T19:52:50.197Z,20.80
2022-08-06T19:56:53.643Z,20.70
2022-08-06T20:01:31.223Z,20.60
2022-08-06T20:06:19.817Z,20.50
2022-08-06T20:09:59.491Z,20.40
2022-08-06T20:14:04.036Z,20.30
2022-08-06T20:18:08.760Z,20.10
2022-08-06T20:22:13.895Z,20.00
2022-08-06T20:26:35.563Z,19.90
2022-08-06T20:30:49.691Z,19.80
2022-08-06T20:35:00.092Z,19.70
2022-08-06T20:39:03.602Z,19.60
2022-08-06T20:43:11.730Z,19.60
2022-08-06T20:47:48.559Z,19.50
2022-08-06T20:51:42.682Z,19.40
2022-08-06T20:55:46.853Z,19.30
2022-08-06T20:59:50.872Z,19.30
2022-08-06T21:05:12.873Z,19.30
2022-08-06T21:08:18.918Z,19.20
2022-08-06T21:12:22.200Z,19.20
2022-08-06T21:16:32.601Z,19.00
2022-08-06T21:20:37.782Z,18.90
2022-08-06T21:24:42.388Z,18.90
2022-08-06T21:28:54.439Z,18.80
2022-08-06T21:32:58.511Z,18.80
2022-08-06T21:37:02.973Z,18.70
2022-08-06T21:41:49.736Z,18.70
2022-08-06T21:46:04.696Z,18.40
2022-08-06T21:50:25.012Z,18.30
2022-08-06T21:54:29.656Z,18.20
2022-08-06T21:58:35.382Z,18.10
2022-08-06T22:02:38.538Z,18.10
2022-08-06T22:06:43.997Z,17.90
2022-08-06T22:10:52.828Z,17.90
2022-08-06T22:14:59.027Z,17.90
2022-08-06T22:19:06.365Z,17.80
2022-08-06T22:23:09.707Z,17.90
2022-08-06T22:27:15.306Z,17.90
2022-08-06T22:31:19.880Z,17.90
2022-08-06T22:35:23.797Z,17.80
2022-08-06T22:39:34.688Z,17.70
2022-08-06T22:43:55.958Z,17.50
2022-08-06T22:48:03.406Z,17.30
2022-08-06T22:52:07.713Z,17.10
2022-08-06T22:56:11.647Z,16.90
2022-08-06T23:00:19.142Z,16.80
2022-08-06T23:04:26.764Z,16.70
2022-08-06T23:08:32.414Z,16.70
2022-08-06T23:12:37.923Z,16.70
2022-08-06T23:16:41.098Z,16.70
2022-08-06T23:20:45.698Z,16.70
2022-08-06T23:24:55.499Z,16.50
2022-08-06T23:29:13.687Z,16.30
2022-08-06T23:33:18.252Z,16.10
2022-08-06T23:37:22.928Z,16.10
2022-08-06T23:41:58.142Z,16.00
2022-08-06T23:46:00.915Z,16.00
2022-08-06T23:50:05.095Z,16.00
2022-08-06T23:54:16.114Z,16.00
2022-08-06T23:58:32.052Z,16.00
